Subiaco, Arkansas
Current Conditions -  °F | °C
As of 9:53 AM on Sunday 21 Dec 2014 (Local Time) from KRUE Reporting Station
Overcast Overcast  
Wind Chill: 38°   Ceiling: 4400
Heat Index: 42°   Visibility: 10mi
Dew Point: 34°   Wind: 7mph
Humidity: 73%   Direction: 100°E
Pressure: 30.16"   Gusts: NA
Location:  35.29°N, 93.63°W
Report Text: KRUE 211553Z AUTO 10006KT 10SM OVC044 06/01 A3016 RMK AO2 SLP211 T00560011
Loading
Personal Weather Stations






























Interactive Weather Map New forecast layout! Learn more

10-Day Weather Forecast

Advertisements
Track Severe Weather on mobile